createdAt,value
2023-01-08T00:01:21.591Z,98609.94
2023-01-08T00:03:48.827Z,98616.47
2023-01-08T00:06:19.403Z,98624.19
2023-01-08T00:08:46.309Z,98623.09
2023-01-08T00:11:13.708Z,98622.41
2023-01-08T00:13:40.635Z,98623.19
2023-01-08T00:16:13.947Z,98627.84
2023-01-08T00:18:41.513Z,98626.94
2023-01-08T00:21:08.688Z,98628.63
2023-01-08T00:23:36.370Z,98631.66
2023-01-08T00:26:13.624Z,98631.19
2023-01-08T00:28:41.233Z,98632.31
2023-01-08T00:31:10.609Z,98636.63
2023-01-08T00:33:38.457Z,98630.84
2023-01-08T00:36:13.684Z,98631.34
2023-01-08T00:38:41.403Z,98633.25
2023-01-08T00:41:08.328Z,98638.25
2023-01-08T00:43:35.295Z,98633.91
2023-01-08T00:46:02.773Z,98628.84
2023-01-08T00:48:29.807Z,98632.31
2023-01-08T00:50:57.043Z,98631.94
2023-01-08T00:53:23.952Z,98630.56
2023-01-08T00:55:50.893Z,98633.69
2023-01-08T00:58:17.742Z,98623.84
2023-01-08T01:00:44.837Z,98622.00
2023-01-08T01:03:11.741Z,98621.50
2023-01-08T01:05:38.657Z,98618.88
2023-01-08T01:08:05.522Z,98617.44
2023-01-08T01:10:32.398Z,98617.63
2023-01-08T01:12:59.380Z,98617.09
2023-01-08T01:15:26.273Z,98619.28
2023-01-08T01:17:53.152Z,98626.25
2023-01-08T01:20:20.209Z,98622.16
2023-01-08T01:22:47.242Z,98625.13
2023-01-08T01:25:14.214Z,98621.94
2023-01-08T01:27:41.465Z,98624.69
2023-01-08T01:30:09.599Z,98621.03
2023-01-08T01:32:36.689Z,98629.09
2023-01-08T01:35:03.948Z,98619.75
2023-01-08T01:37:30.882Z,98616.53
2023-01-08T01:39:58.119Z,98613.94
2023-01-08T01:42:40.130Z,98613.69
2023-01-08T01:45:22.388Z,98617.22
2023-01-08T01:47:55.521Z,98622.34
2023-01-08T01:50:39.979Z,98619.31
2023-01-08T01:53:17.722Z,98616.06
2023-01-08T01:55:46.253Z,98623.41
2023-01-08T01:58:23.796Z,98620.03
2023-01-08T02:00:52.579Z,98614.56
2023-01-08T02:03:29.510Z,98614.84
2023-01-08T02:06:22.481Z,98611.88
2023-01-08T02:08:55.642Z,98611.31
2023-01-08T02:11:40.705Z,98609.81
2023-01-08T02:14:23.486Z,98607.22
2023-01-08T02:17:01.142Z,98603.56
2023-01-08T02:19:38.225Z,98600.47
2023-01-08T02:22:15.083Z,98600.22
2023-01-08T02:24:41.900Z,98586.06
2023-01-08T02:27:09.754Z,98593.72
2023-01-08T02:29:37.250Z,98602.97
2023-01-08T02:32:04.591Z,98584.31
2023-01-08T02:34:32.523Z,98595.16
2023-01-08T02:37:00.799Z,98589.88
2023-01-08T02:39:58.827Z,98591.66
2023-01-08T02:43:06.991Z,98589.19
2023-01-08T02:45:36.395Z,98588.38
2023-01-08T02:48:27.239Z,98589.88
2023-01-08T02:51:10.221Z,98596.47
2023-01-08T02:53:43.186Z,98598.69
2023-01-08T02:56:15.012Z,98594.00
2023-01-08T02:58:43.201Z,98598.84
2023-01-08T03:01:13.439Z,98595.69
2023-01-08T03:03:46.154Z,98592.03
2023-01-08T03:06:15.835Z,98595.13
2023-01-08T03:08:45.650Z,98593.47
2023-01-08T03:11:18.700Z,98596.63
2023-01-08T03:13:52.367Z,98591.91
2023-01-08T03:16:26.140Z,98599.09
2023-01-08T03:19:00.418Z,98605.50
2023-01-08T03:21:27.870Z,98593.16
2023-01-08T03:23:56.579Z,98601.41
2023-01-08T03:26:26.933Z,98598.69
2023-01-08T03:28:57.567Z,98599.41
2023-01-08T03:31:28.016Z,98598.28
2023-01-08T03:33:56.490Z,98597.34
2023-01-08T03:36:28.338Z,98597.25
2023-01-08T03:39:04.118Z,98602.22
2023-01-08T03:41:34.103Z,98599.06
2023-01-08T03:44:01.070Z,98589.84
2023-01-08T03:46:42.469Z,98595.31
2023-01-08T03:49:10.323Z,98599.69
2023-01-08T03:51:45.408Z,98603.50
2023-01-08T03:54:15.707Z,98603.50
2023-01-08T03:56:42.748Z,98599.41
2023-01-08T03:59:11.831Z,98593.34
2023-01-08T04:01:39.458Z,98590.50
2023-01-08T04:04:07.294Z,98595.41
2023-01-08T04:06:34.597Z,98595.75
2023-01-08T04:09:01.710Z,98597.59
2023-01-08T04:11:28.636Z,98593.97
2023-01-08T04:13:56.008Z,98591.91
2023-01-08T04:16:23.572Z,98591.78
2023-01-08T04:18:50.453Z,98598.63
2023-01-08T04:21:17.619Z,98599.75
2023-01-08T04:23:44.601Z,98590.16
2023-01-08T04:26:11.703Z,98593.69
2023-01-08T04:28:38.674Z,98595.16
2023-01-08T04:31:09.695Z,98600.38
2023-01-08T04:33:37.193Z,98602.47
2023-01-08T04:36:05.663Z,98606.66
2023-01-08T04:38:32.613Z,98596.59
2023-01-08T04:41:01.204Z,98594.97
2023-01-08T04:43:28.787Z,98586.78
2023-01-08T04:46:00.174Z,98586.56
2023-01-08T04:48:28.423Z,98599.41
2023-01-08T04:50:57.853Z,98593.44
2023-01-08T04:53:24.901Z,98592.31
2023-01-08T04:55:51.947Z,98597.13
2023-01-08T04:58:18.989Z,98604.13
2023-01-08T05:00:45.895Z,98600.16
2023-01-08T05:03:13.303Z,98603.41
2023-01-08T05:05:40.477Z,98604.31
2023-01-08T05:08:07.391Z,98607.47
2023-01-08T05:10:34.330Z,98601.63
2023-01-08T05:13:01.550Z,98599.53
2023-01-08T05:15:29.101Z,98597.44
2023-01-08T05:18:00.761Z,98597.44
2023-01-08T05:20:28.618Z,98602.97
2023-01-08T05:22:56.553Z,98606.50
2023-01-08T05:25:23.486Z,98603.78
2023-01-08T05:27:50.747Z,98612.25
2023-01-08T05:30:17.714Z,98610.91
2023-01-08T05:32:44.627Z,98614.88
2023-01-08T05:35:11.642Z,98609.66
2023-01-08T05:37:38.765Z,98610.06
2023-01-08T05:40:06.193Z,98618.34
2023-01-08T05:42:36.878Z,98607.69
2023-01-08T05:45:05.073Z,98610.28
2023-01-08T05:47:34.722Z,98604.97
2023-01-08T05:50:01.971Z,98602.47
2023-01-08T05:52:29.462Z,98607.38
2023-01-08T05:54:56.567Z,98608.63
2023-01-08T05:57:23.628Z,98609.97
2023-01-08T05:59:50.603Z,98616.38
2023-01-08T06:02:17.521Z,98626.06
2023-01-08T06:04:44.533Z,98622.31
2023-01-08T06:07:11.498Z,98620.41
2023-01-08T06:09:38.437Z,98629.94
2023-01-08T06:12:05.484Z,98631.63
2023-01-08T06:14:32.390Z,98630.44
2023-01-08T06:16:59.321Z,98641.53
2023-01-08T06:19:26.648Z,98633.56
2023-01-08T06:21:53.673Z,98640.66
2023-01-08T06:24:20.607Z,98644.34
2023-01-08T06:26:47.487Z,98644.84
2023-01-08T06:29:14.386Z,98643.94
2023-01-08T06:31:41.383Z,98640.16
2023-01-08T06:34:08.340Z,98646.97
2023-01-08T06:36:35.330Z,98654.97
2023-01-08T06:39:02.246Z,98648.72
2023-01-08T06:41:29.102Z,98648.47
2023-01-08T06:43:56.055Z,98659.38
2023-01-08T06:46:22.954Z,98657.59
2023-01-08T06:48:49.981Z,98646.31
2023-01-08T06:51:16.903Z,98656.34
2023-01-08T06:53:44.024Z,98650.41
2023-01-08T06:56:11.193Z,98654.69
2023-01-08T06:58:39.385Z,98657.50
2023-01-08T07:01:06.785Z,98660.50
2023-01-08T07:03:33.859Z,98652.88
2023-01-08T07:06:03.043Z,98656.13
2023-01-08T07:08:29.992Z,98650.91
2023-01-08T07:10:56.940Z,98645.16
2023-01-08T07:13:24.503Z,98653.00
2023-01-08T07:15:51.551Z,98652.56
2023-01-08T07:18:18.480Z,98652.97
2023-01-08T07:20:45.356Z,98657.16
2023-01-08T07:23:12.265Z,98662.22
2023-01-08T07:25:39.313Z,98661.97
2023-01-08T07:28:10.789Z,98661.44
2023-01-08T07:30:37.862Z,98663.09
2023-01-08T07:33:04.844Z,98664.69
2023-01-08T07:35:31.875Z,98665.50
2023-01-08T07:37:58.803Z,98671.78
2023-01-08T07:40:25.787Z,98669.16
2023-01-08T07:43:00.878Z,98674.22
2023-01-08T07:45:29.359Z,98673.19
2023-01-08T07:48:00.387Z,98677.69
2023-01-08T07:50:27.924Z,98667.53
2023-01-08T07:53:02.041Z,98674.09
2023-01-08T07:55:30.881Z,98680.72
2023-01-08T07:57:58.169Z,98671.22
2023-01-08T08:00:25.617Z,98671.06
2023-01-08T08:02:52.831Z,98677.19
2023-01-08T08:05:19.795Z,98672.75
2023-01-08T08:07:46.657Z,98672.97
2023-01-08T08:10:13.681Z,98676.31
2023-01-08T08:12:40.591Z,98671.16
2023-01-08T08:15:08.607Z,98677.09
2023-01-08T08:17:35.590Z,98685.53
2023-01-08T08:20:02.539Z,98673.69
2023-01-08T08:22:29.444Z,98679.22
2023-01-08T08:24:56.371Z,98680.84
2023-01-08T08:27:24.612Z,98678.28
2023-01-08T08:29:51.575Z,98678.84
2023-01-08T08:32:18.584Z,98671.75
2023-01-08T08:34:45.558Z,98669.69
2023-01-08T08:37:12.520Z,98672.91
2023-01-08T08:39:39.433Z,98674.09
2023-01-08T08:42:06.439Z,98664.72
2023-01-08T08:44:33.484Z,98665.38
2023-01-08T08:47:00.618Z,98670.50
2023-01-08T08:49:27.592Z,98667.34
2023-01-08T08:51:54.534Z,98662.09
2023-01-08T08:54:21.464Z,98662.50
2023-01-08T08:56:48.867Z,98668.09
2023-01-08T08:59:15.879Z,98671.66
2023-01-08T09:01:42.865Z,98674.53
2023-01-08T09:04:09.903Z,98673.69
2023-01-08T09:06:36.933Z,98668.47
2023-01-08T09:09:04.258Z,98667.00
2023-01-08T09:11:32.146Z,98658.78
2023-01-08T09:13:59.039Z,98658.91
2023-01-08T09:16:25.967Z,98651.16
2023-01-08T09:18:53.014Z,98655.94
2023-01-08T09:21:19.974Z,98650.22
2023-01-08T09:23:49.325Z,98647.56
2023-01-08T09:26:16.374Z,98646.03
2023-01-08T09:28:43.234Z,98637.75
2023-01-08T09:31:10.386Z,98633.69
2023-01-08T09:33:37.634Z,98626.16
2023-01-08T09:36:04.803Z,98638.72
2023-01-08T09:38:31.758Z,98628.59
2023-01-08T09:41:03.818Z,98618.03
2023-01-08T09:43:35.001Z,98616.13
2023-01-08T10:17:34.497Z,98577.28
2023-01-08T10:20:01.586Z,98585.16
2023-01-08T10:22:32.912Z,98576.91
2023-01-08T10:25:10.058Z,98575.56
2023-01-08T10:27:48.688Z,98575.41
2023-01-08T10:30:22.856Z,98562.97
2023-01-08T10:32:57.772Z,98564.63
2023-01-08T10:35:33.999Z,98559.50
2023-01-08T10:38:02.093Z,98554.78
2023-01-08T10:40:37.060Z,98551.44
2023-01-08T10:43:14.566Z,98551.72
2023-01-08T10:45:44.016Z,98549.91
2023-01-08T10:48:18.520Z,98540.66
2023-01-08T10:50:45.392Z,98544.81
2023-01-08T10:53:24.889Z,98532.75
2023-01-08T10:56:03.031Z,98534.44
2023-01-08T10:58:30.791Z,98535.25
2023-01-08T11:01:13.177Z,98528.59
2023-01-08T11:03:41.296Z,98520.97
2023-01-08T11:06:27.678Z,98514.31
2023-01-08T11:09:14.213Z,98515.03
2023-01-08T11:11:41.194Z,98526.53
2023-01-08T11:14:26.811Z,98514.34
2023-01-08T11:16:55.365Z,98515.16
2023-01-08T11:19:33.720Z,98512.25
2023-01-08T11:22:08.665Z,98509.22
2023-01-08T11:24:38.027Z,98514.63
2023-01-08T11:27:17.369Z,98521.72
2023-01-08T11:29:50.436Z,98518.19
2023-01-08T11:32:29.387Z,98512.94
2023-01-08T11:35:03.628Z,98513.22
2023-01-08T11:37:40.466Z,98505.47
2023-01-08T11:40:26.215Z,98514.09
2023-01-08T11:43:07.452Z,98509.22
2023-01-08T11:45:43.973Z,98504.06
2023-01-08T11:48:29.040Z,98515.19
2023-01-08T11:51:10.448Z,98512.28
2023-01-08T11:53:44.991Z,98510.31
2023-01-08T11:56:30.756Z,98503.69
2023-01-08T11:59:12.922Z,98507.25
2023-01-08T12:02:19.379Z,98510.13
2023-01-08T12:05:04.960Z,98499.59
2023-01-08T12:07:50.074Z,98505.50
2023-01-08T12:10:25.949Z,98507.91
2023-01-08T12:13:25.115Z,98504.00
2023-01-08T12:16:31.156Z,98509.22
2023-01-08T12:19:16.072Z,98505.94
2023-01-08T12:22:02.298Z,98498.31
2023-01-08T12:24:41.008Z,98504.97
2023-01-08T12:27:54.584Z,98497.03
2023-01-08T12:30:31.780Z,98500.66
2023-01-08T12:33:04.743Z,98499.44
2023-01-08T12:35:37.800Z,98501.47
2023-01-08T12:38:13.577Z,98495.09
2023-01-08T12:40:43.743Z,98499.69
2023-01-08T12:43:19.433Z,98503.44
2023-01-08T12:45:50.824Z,98500.88
2023-01-08T12:48:28.558Z,98498.31
2023-01-08T12:51:05.256Z,98507.25
2023-01-08T12:53:32.760Z,98506.13
2023-01-08T12:56:17.552Z,98509.69
2023-01-08T12:58:56.449Z,98497.84
2023-01-08T13:01:49.654Z,98504.13
2023-01-08T13:04:20.727Z,98498.69
2023-01-08T13:07:02.749Z,98499.44
2023-01-08T13:09:31.123Z,98505.53
2023-01-08T13:12:00.894Z,98513.09
2023-01-08T13:14:28.031Z,98506.66
2023-01-08T13:17:05.112Z,98514.28
2023-01-08T13:19:42.510Z,98506.66
2023-01-08T13:22:22.279Z,98512.53
2023-01-08T13:24:49.148Z,98510.88
2023-01-08T13:27:19.128Z,98511.81
2023-01-08T13:29:47.738Z,98513.84
2023-01-08T13:32:43.957Z,98511.19
2023-01-08T13:35:16.536Z,98508.44
2023-01-08T13:37:45.293Z,98512.19
2023-01-08T13:40:49.768Z,98515.41
2023-01-08T13:43:49.829Z,98514.59
2023-01-08T13:46:19.319Z,98518.69
2023-01-08T13:48:59.481Z,98508.63
2023-01-08T13:51:35.234Z,98518.19
2023-01-08T13:54:28.622Z,98516.66
2023-01-08T13:57:04.822Z,98515.41
2023-01-08T13:59:34.710Z,98520.34
2023-01-08T14:02:01.937Z,98512.84
2023-01-08T14:04:28.940Z,98518.53
2023-01-08T14:07:14.984Z,98524.06
2023-01-08T14:09:42.036Z,98519.91
2023-01-08T14:12:15.044Z,98509.22
2023-01-08T14:14:47.989Z,98515.63
2023-01-08T14:17:20.240Z,98511.19
2023-01-08T14:19:47.508Z,98522.88
2023-01-08T14:22:32.501Z,98519.66
2023-01-08T14:25:04.291Z,98522.88
2023-01-08T14:27:32.411Z,98527.91
2023-01-08T14:29:59.472Z,98519.69
2023-01-08T14:32:31.172Z,98523.13
2023-01-08T14:35:01.505Z,98524.69
2023-01-08T14:37:28.455Z,98527.75
2023-01-08T14:39:55.495Z,98528.13
2023-01-08T14:42:53.390Z,98522.91
2023-01-08T14:45:21.780Z,98527.75
2023-01-08T14:47:53.460Z,98521.94
2023-01-08T14:50:29.533Z,98528.69
2023-01-08T14:53:18.238Z,98531.53
2023-01-08T14:55:49.723Z,98525.06
2023-01-08T14:58:20.868Z,98523.41
2023-01-08T15:00:53.271Z,98525.50
2023-01-08T15:03:38.635Z,98522.34
2023-01-08T15:06:07.649Z,98518.09
2023-01-08T15:08:44.857Z,98521.75
2023-01-08T15:11:31.675Z,98521.84
2023-01-08T15:13:59.151Z,98527.13
2023-01-08T15:16:39.513Z,98531.56
2023-01-08T15:19:10.432Z,98524.13
2023-01-08T15:21:38.069Z,98514.56
2023-01-08T15:24:07.141Z,98520.22
2023-01-08T15:26:34.484Z,98515.25
2023-01-08T15:29:19.681Z,98518.06
2023-01-08T15:31:49.117Z,98521.81
2023-01-08T15:34:20.927Z,98513.19
2023-01-08T15:36:49.481Z,98518.69
2023-01-08T15:39:16.611Z,98516.75
2023-01-08T15:42:02.258Z,98522.03
2023-01-08T15:44:29.239Z,98520.47
2023-01-08T15:46:56.299Z,98521.69
2023-01-08T15:49:23.409Z,98520.13
2023-01-08T15:51:52.022Z,98524.00
2023-01-08T15:54:21.472Z,98519.84
2023-01-08T15:56:48.389Z,98518.06
2023-01-08T15:59:15.389Z,98518.81
2023-01-08T16:01:42.676Z,98525.78
2023-01-08T16:04:09.708Z,98523.03
2023-01-08T16:06:37.006Z,98522.34
2023-01-08T16:09:04.136Z,98524.00
2023-01-08T16:11:31.131Z,98533.03
2023-01-08T16:13:58.193Z,98532.28
2023-01-08T16:16:25.273Z,98533.75
2023-01-08T16:18:52.834Z,98529.63
2023-01-08T16:21:19.813Z,98532.81
2023-01-08T16:23:46.775Z,98532.81
2023-01-08T16:26:15.431Z,98532.97
2023-01-08T16:28:42.722Z,98528.09
2023-01-08T16:31:10.761Z,98531.72
2023-01-08T16:33:37.781Z,98531.47
2023-01-08T16:36:08.063Z,98530.69
2023-01-08T16:38:36.093Z,98528.25
2023-01-08T16:41:04.332Z,98533.06
2023-01-08T16:43:38.067Z,98540.56
2023-01-08T16:46:12.137Z,98534.63
2023-01-08T16:48:39.271Z,98541.97
2023-01-08T16:51:06.776Z,98530.69
2023-01-08T16:53:35.745Z,98541.78
2023-01-08T16:56:04.239Z,98540.81
2023-01-08T16:58:32.037Z,98545.66
2023-01-08T17:00:59.375Z,98542.03
2023-01-08T17:03:26.412Z,98546.38
2023-01-08T17:05:53.335Z,98545.44
2023-01-08T17:08:20.733Z,98541.53
2023-01-08T17:10:47.701Z,98544.13
2023-01-08T17:13:14.625Z,98552.88
2023-01-08T17:15:41.603Z,98547.53
2023-01-08T17:18:11.713Z,98547.84
2023-01-08T17:20:38.675Z,98542.22
2023-01-08T17:23:05.671Z,98539.44
2023-01-08T17:25:32.594Z,98546.88
2023-01-08T17:27:59.456Z,98538.41
2023-01-08T17:30:26.632Z,98551.41
2023-01-08T17:32:53.577Z,98548.88
2023-01-08T17:35:20.534Z,98559.50
2023-01-08T17:37:47.728Z,98563.78
2023-01-08T17:40:14.695Z,98564.84
2023-01-08T17:42:41.817Z,98566.00
2023-01-08T17:45:09.342Z,98567.00
2023-01-08T17:47:37.385Z,98569.38
2023-01-08T17:50:05.952Z,98568.53
2023-01-08T17:52:33.181Z,98567.34
2023-01-08T17:55:00.184Z,98571.03
2023-01-08T17:57:27.342Z,98566.41
2023-01-08T17:59:54.267Z,98564.47
2023-01-08T18:02:21.395Z,98567.84
2023-01-08T18:04:49.119Z,98570.53
2023-01-08T18:07:16.478Z,98566.88
2023-01-08T18:09:43.973Z,98567.09
2023-01-08T18:12:11.200Z,98568.81
2023-01-08T18:14:39.918Z,98563.19
2023-01-08T18:17:07.218Z,98567.28
2023-01-08T18:19:34.078Z,98568.53
2023-01-08T18:22:01.257Z,98560.44
2023-01-08T18:24:28.485Z,98561.03
2023-01-08T18:26:55.463Z,98556.63
2023-01-08T18:29:22.413Z,98556.91
2023-01-08T18:31:49.545Z,98552.16
2023-01-08T18:34:16.884Z,98562.31
2023-01-08T18:36:43.816Z,98560.59
2023-01-08T18:39:12.946Z,98559.00
2023-01-08T18:41:58.420Z,98565.19
2023-01-08T18:44:25.955Z,98561.63
2023-01-08T18:46:54.090Z,98553.22
2023-01-08T18:49:21.550Z,98562.25
2023-01-08T18:51:48.818Z,98561.94
2023-01-08T18:54:15.923Z,98569.25
2023-01-08T18:56:42.956Z,98561.22
2023-01-08T18:59:11.239Z,98568.75
2023-01-08T19:01:39.448Z,98564.78
2023-01-08T19:04:06.962Z,98563.28
2023-01-08T19:06:33.881Z,98567.47
2023-01-08T19:09:01.109Z,98565.63
2023-01-08T19:11:28.520Z,98563.75
2023-01-08T19:13:58.819Z,98567.72
2023-01-08T19:16:26.758Z,98565.75
2023-01-08T19:18:54.246Z,98571.91
2023-01-08T19:21:21.820Z,98574.59
2023-01-08T19:23:48.818Z,98572.31
2023-01-08T19:26:16.444Z,98576.19
2023-01-08T19:28:44.048Z,98576.28
2023-01-08T19:31:14.109Z,98576.53
2023-01-08T19:33:41.687Z,98584.03
2023-01-08T19:36:12.838Z,98582.75
2023-01-08T19:38:40.481Z,98575.63
2023-01-08T19:41:27.093Z,98579.63
2023-01-08T19:43:57.825Z,98577.16
2023-01-08T19:46:25.267Z,98570.25
2023-01-08T19:48:52.404Z,98570.44
2023-01-08T19:51:19.773Z,98564.28
2023-01-08T19:53:46.808Z,98566.84
2023-01-08T19:56:14.857Z,98569.69
2023-01-08T19:58:42.277Z,98572.38
2023-01-08T20:01:15.738Z,98580.69
2023-01-08T20:03:43.749Z,98573.16
2023-01-08T20:06:16.533Z,98562.31
2023-01-08T20:08:46.098Z,98570.75
2023-01-08T20:11:15.513Z,98569.44
2023-01-08T20:13:43.333Z,98570.28
2023-01-08T20:16:14.165Z,98574.16
2023-01-08T20:18:41.786Z,98567.31
2023-01-08T20:21:21.053Z,98572.75
2023-01-08T20:23:48.398Z,98555.41
2023-01-08T20:26:18.726Z,98561.44
2023-01-08T20:28:46.636Z,98558.59
2023-01-08T20:31:16.531Z,98572.13
2023-01-08T20:33:44.694Z,98571.03
2023-01-08T20:36:17.643Z,98565.03
2023-01-08T20:38:45.845Z,98568.34
2023-01-08T20:41:12.895Z,98563.00
2023-01-08T20:43:41.030Z,98572.94
2023-01-08T20:46:13.944Z,98566.44
2023-01-08T20:48:47.771Z,98569.19
2023-01-08T20:51:15.970Z,98575.16
2023-01-08T20:53:43.124Z,98577.53
2023-01-08T20:56:14.587Z,98571.28
2023-01-08T20:58:43.993Z,98581.41
2023-01-08T21:01:23.153Z,98575.63
2023-01-08T21:03:54.307Z,98573.00
2023-01-08T21:06:24.121Z,98578.25
2023-01-08T21:08:54.575Z,98582.13
2023-01-08T21:11:21.788Z,98583.59
2023-01-08T21:13:49.358Z,98586.13
2023-01-08T21:16:20.371Z,98585.25
2023-01-08T21:18:49.285Z,98580.75
2023-01-08T21:21:25.053Z,98588.81
2023-01-08T21:23:51.922Z,98582.06
2023-01-08T21:26:19.385Z,98588.00
2023-01-08T21:28:47.441Z,98582.88
2023-01-08T21:31:17.522Z,98581.50
2023-01-08T21:33:47.740Z,98585.44
2023-01-08T21:36:19.105Z,98591.31
2023-01-08T21:38:46.659Z,98584.41
2023-01-08T21:41:37.201Z,98585.06
2023-01-08T21:44:24.633Z,98579.19
2023-01-08T21:46:51.742Z,98570.84
2023-01-08T21:49:18.796Z,98581.81
2023-01-08T21:52:04.013Z,98579.41
2023-01-08T21:54:31.025Z,98572.91
2023-01-08T21:56:57.931Z,98577.44
2023-01-08T21:59:25.151Z,98574.69
2023-01-08T22:01:52.182Z,98578.28
2023-01-08T22:04:19.171Z,98575.06
2023-01-08T22:06:46.052Z,98577.53
2023-01-08T22:09:13.018Z,98570.75
2023-01-08T22:11:39.929Z,98566.81
2023-01-08T22:14:06.921Z,98566.72
2023-01-08T22:16:34.069Z,98564.22
2023-01-08T22:19:00.977Z,98557.53
2023-01-08T22:21:27.867Z,98558.38
2023-01-08T22:23:56.668Z,98560.44
2023-01-08T22:26:24.299Z,98549.47
2023-01-08T22:28:51.320Z,98553.34
2023-01-08T22:31:18.316Z,98554.63
2023-01-08T22:33:45.265Z,98549.06
2023-01-08T22:36:13.993Z,98552.94
2023-01-08T22:38:40.918Z,98548.97
2023-01-08T22:41:24.662Z,98550.81
2023-01-08T22:43:58.598Z,98548.59
2023-01-08T22:46:25.906Z,98546.47
2023-01-08T22:48:52.939Z,98551.78
2023-01-08T22:51:26.381Z,98550.19
2023-01-08T22:53:55.430Z,98551.44
2023-01-08T22:56:22.855Z,98551.84
2023-01-08T22:58:50.055Z,98558.84
2023-01-08T23:01:25.995Z,98557.47
2023-01-08T23:03:58.221Z,98556.56
2023-01-08T23:06:27.609Z,98560.09
2023-01-08T23:08:56.071Z,98553.19
2023-01-08T23:11:23.817Z,98552.91
2023-01-08T23:13:51.315Z,98563.00
2023-01-08T23:16:19.865Z,98558.72
2023-01-08T23:18:46.816Z,98551.59
2023-01-08T23:21:17.463Z,98557.97
2023-01-08T23:23:45.027Z,98558.28
2023-01-08T23:26:32.234Z,98559.72
2023-01-08T23:29:00.798Z,98566.34
2023-01-08T23:31:29.930Z,98561.16
2023-01-08T23:33:57.867Z,98550.53
2023-01-08T23:36:25.773Z,98550.53
2023-01-08T23:38:54.891Z,98556.06
2023-01-08T23:41:26.059Z,98555.16
2023-01-08T23:43:54.920Z,98552.44
2023-01-08T23:46:21.831Z,98547.91
2023-01-08T23:48:51.028Z,98548.94
2023-01-08T23:51:18.015Z,98545.44
2023-01-08T23:53:45.170Z,98548.28
2023-01-08T23:56:12.626Z,98549.34
2023-01-08T23:58:39.757Z,98555.16
